sensor_id;sensor_type;location;lat;lon;timestamp;P1;durP1;ratioP1;P2;durP2;ratioP2
47337;SDS011;33069;51.970;5.892;2023-02-18T00:01:02;99.47;;;39.42;;
47337;SDS011;33069;51.970;5.892;2023-02-18T00:03:32;109.63;;;41.13;;
47337;SDS011;33069;51.970;5.892;2023-02-18T00:05:58;109.55;;;40.63;;
47337;SDS011;33069;51.970;5.892;2023-02-18T00:08:23;110.95;;;41.00;;
47337;SDS011;33069;51.970;5.892;2023-02-18T00:10:49;129.82;;;44.53;;
47337;SDS011;33069;51.970;5.892;2023-02-18T00:13:15;114.32;;;38.75;;
47337;SDS011;33069;51.970;5.892;2023-02-18T00:15:41;115.00;;;40.00;;
47337;SDS011;33069;51.970;5.892;2023-02-18T00:18:06;138.95;;;41.95;;
47337;SDS011;33069;51.970;5.892;2023-02-18T00:20:32;107.13;;;39.05;;
47337;SDS011;33069;51.970;5.892;2023-02-18T00:23:00;120.25;;;41.42;;
47337;SDS011;33069;51.970;5.892;2023-02-18T00:25:26;122.10;;;42.72;;
47337;SDS011;33069;51.970;5.892;2023-02-18T00:27:52;99.28;;;36.45;;
47337;SDS011;33069;51.970;5.892;2023-02-18T00:30:18;109.20;;;39.00;;
47337;SDS011;33069;51.970;5.892;2023-02-18T00:32:44;114.38;;;40.08;;
47337;SDS011;33069;51.970;5.892;2023-02-18T00:35:09;114.78;;;40.03;;
47337;SDS011;33069;51.970;5.892;2023-02-18T00:37:35;103.20;;;39.83;;
47337;SDS011;33069;51.970;5.892;2023-02-18T00:40:01;141.75;;;47.45;;
47337;SDS011;33069;51.970;5.892;2023-02-18T00:42:27;121.22;;;42.63;;
47337;SDS011;33069;51.970;5.892;2023-02-18T00:44:53;136.23;;;43.28;;
47337;SDS011;33069;51.970;5.892;2023-02-18T00:47:19;152.85;;;47.22;;
47337;SDS011;33069;51.970;5.892;2023-02-18T00:49:44;108.30;;;39.65;;
47337;SDS011;33069;51.970;5.892;2023-02-18T00:52:10;111.47;;;41.13;;
47337;SDS011;33069;51.970;5.892;2023-02-18T00:54:36;94.88;;;34.13;;
47337;SDS011;33069;51.970;5.892;2023-02-18T00:57:01;108.30;;;39.78;;
47337;SDS011;33069;51.970;5.892;2023-02-18T00:59:27;127.72;;;42.78;;
47337;SDS011;33069;51.970;5.892;2023-02-18T01:01:53;110.60;;;41.05;;
47337;SDS011;33069;51.970;5.892;2023-02-18T01:04:18;99.90;;;38.40;;
47337;SDS011;33069;51.970;5.892;2023-02-18T01:06:44;119.22;;;41.25;;
47337;SDS011;33069;51.970;5.892;2023-02-18T01:09:10;111.78;;;39.22;;
47337;SDS011;33069;51.970;5.892;2023-02-18T01:11:36;108.55;;;42.42;;
47337;SDS011;33069;51.970;5.892;2023-02-18T01:14:01;115.47;;;40.75;;
47337;SDS011;33069;51.970;5.892;2023-02-18T01:16:27;98.20;;;37.70;;
47337;SDS011;33069;51.970;5.892;2023-02-18T01:18:54;88.15;;;34.58;;
47337;SDS011;33069;51.970;5.892;2023-02-18T01:21:20;89.72;;;35.00;;
47337;SDS011;33069;51.970;5.892;2023-02-18T01:23:45;90.93;;;33.22;;
47337;SDS011;33069;51.970;5.892;2023-02-18T01:26:11;90.85;;;35.63;;
47337;SDS011;33069;51.970;5.892;2023-02-18T01:28:38;88.50;;;37.35;;
47337;SDS011;33069;51.970;5.892;2023-02-18T01:31:05;87.18;;;36.78;;
47337;SDS011;33069;51.970;5.892;2023-02-18T01:33:33;78.35;;;33.72;;
47337;SDS011;33069;51.970;5.892;2023-02-18T01:35:58;90.90;;;36.63;;
47337;SDS011;33069;51.970;5.892;2023-02-18T01:38:24;104.32;;;40.60;;
47337;SDS011;33069;51.970;5.892;2023-02-18T01:40:50;109.30;;;40.28;;
47337;SDS011;33069;51.970;5.892;2023-02-18T01:43:17;108.72;;;42.10;;
47337;SDS011;33069;51.970;5.892;2023-02-18T01:48:17;107.72;;;40.50;;
47337;SDS011;33069;51.970;5.892;2023-02-18T01:53:31;111.80;;;42.20;;
47337;SDS011;33069;51.970;5.892;2023-02-18T01:56:19;118.40;;;43.20;;
47337;SDS011;33069;51.970;5.892;2023-02-18T01:58:57;151.02;;;48.17;;
47337;SDS011;33069;51.970;5.892;2023-02-18T02:01:26;113.55;;;40.92;;
47337;SDS011;33069;51.970;5.892;2023-02-18T02:03:51;162.70;;;52.97;;
47337;SDS011;33069;51.970;5.892;2023-02-18T02:06:18;168.10;;;50.83;;
47337;SDS011;33069;51.970;5.892;2023-02-18T02:08:46;161.65;;;50.95;;
47337;SDS011;33069;51.970;5.892;2023-02-18T02:28:07;170.13;;;54.85;;
47337;SDS011;33069;51.970;5.892;2023-02-18T02:30:41;207.07;;;56.95;;
47337;SDS011;33069;51.970;5.892;2023-02-18T02:35:54;183.80;;;56.25;;
47337;SDS011;33069;51.970;5.892;2023-02-18T02:38:33;221.40;;;61.78;;
47337;SDS011;33069;51.970;5.892;2023-02-18T02:41:09;202.93;;;58.80;;
47337;SDS011;33069;51.970;5.892;2023-02-18T02:46:44;200.10;;;58.78;;
47337;SDS011;33069;51.970;5.892;2023-02-18T02:51:56;169.57;;;50.95;;
47337;SDS011;33069;51.970;5.892;2023-02-18T02:54:24;180.48;;;53.67;;
47337;SDS011;33069;51.970;5.892;2023-02-18T02:59:44;184.75;;;52.95;;
47337;SDS011;33069;51.970;5.892;2023-02-18T03:10:52;222.02;;;62.28;;
47337;SDS011;33069;51.970;5.892;2023-02-18T03:16:25;163.45;;;51.80;;
47337;SDS011;33069;51.970;5.892;2023-02-18T03:21:48;174.20;;;49.72;;
47337;SDS011;33069;51.970;5.892;2023-02-18T03:24:22;175.15;;;51.17;;
47337;SDS011;33069;51.970;5.892;2023-02-18T03:27:03;183.00;;;51.33;;
47337;SDS011;33069;51.970;5.892;2023-02-18T03:29:38;188.55;;;54.65;;
47337;SDS011;33069;51.970;5.892;2023-02-18T03:32:07;233.75;;;59.03;;
47337;SDS011;33069;51.970;5.892;2023-02-18T03:34:37;197.18;;;52.55;;
47337;SDS011;33069;51.970;5.892;2023-02-18T03:37:07;172.55;;;48.60;;
47337;SDS011;33069;51.970;5.892;2023-02-18T03:39:34;152.02;;;45.70;;
47337;SDS011;33069;51.970;5.892;2023-02-18T03:42:01;232.90;;;54.45;;
47337;SDS011;33069;51.970;5.892;2023-02-18T03:44:29;153.68;;;43.30;;
47337;SDS011;33069;51.970;5.892;2023-02-18T03:46:56;166.55;;;46.95;;
47337;SDS011;33069;51.970;5.892;2023-02-18T03:49:22;131.43;;;40.17;;
47337;SDS011;33069;51.970;5.892;2023-02-18T03:51:48;114.90;;;37.58;;
47337;SDS011;33069;51.970;5.892;2023-02-18T03:54:14;97.10;;;34.20;;
47337;SDS011;33069;51.970;5.892;2023-02-18T03:56:40;103.95;;;35.35;;
47337;SDS011;33069;51.970;5.892;2023-02-18T03:59:06;110.00;;;34.78;;
47337;SDS011;33069;51.970;5.892;2023-02-18T04:01:33;95.15;;;29.70;;
47337;SDS011;33069;51.970;5.892;2023-02-18T04:03:59;136.40;;;38.70;;
47337;SDS011;33069;51.970;5.892;2023-02-18T04:06:27;98.82;;;31.85;;
47337;SDS011;33069;51.970;5.892;2023-02-18T04:08:53;139.25;;;36.88;;
47337;SDS011;33069;51.970;5.892;2023-02-18T04:11:19;102.03;;;31.38;;
47337;SDS011;33069;51.970;5.892;2023-02-18T04:13:45;138.88;;;37.85;;
47337;SDS011;33069;51.970;5.892;2023-02-18T04:16:10;116.75;;;34.33;;
47337;SDS011;33069;51.970;5.892;2023-02-18T04:18:36;120.78;;;36.55;;
47337;SDS011;33069;51.970;5.892;2023-02-18T04:21:02;109.72;;;34.45;;
47337;SDS011;33069;51.970;5.892;2023-02-18T04:23:28;134.35;;;37.75;;
47337;SDS011;33069;51.970;5.892;2023-02-18T04:25:53;88.03;;;28.65;;
47337;SDS011;33069;51.970;5.892;2023-02-18T04:28:19;128.95;;;33.67;;
47337;SDS011;33069;51.970;5.892;2023-02-18T04:30:45;98.75;;;32.33;;
47337;SDS011;33069;51.970;5.892;2023-02-18T04:33:11;79.15;;;26.27;;
47337;SDS011;33069;51.970;5.892;2023-02-18T04:35:37;71.93;;;27.10;;
47337;SDS011;33069;51.970;5.892;2023-02-18T04:38:05;82.93;;;27.27;;
47337;SDS011;33069;51.970;5.892;2023-02-18T04:40:32;73.53;;;23.83;;
47337;SDS011;33069;51.970;5.892;2023-02-18T04:42:58;78.60;;;24.17;;
47337;SDS011;33069;51.970;5.892;2023-02-18T04:45:25;69.45;;;21.52;;
47337;SDS011;33069;51.970;5.892;2023-02-18T04:47:52;77.57;;;22.92;;
47337;SDS011;33069;51.970;5.892;2023-02-18T04:50:18;56.10;;;19.13;;
47337;SDS011;33069;51.970;5.892;2023-02-18T04:52:45;55.65;;;18.50;;
47337;SDS011;33069;51.970;5.892;2023-02-18T04:55:10;56.95;;;18.58;;
47337;SDS011;33069;51.970;5.892;2023-02-18T04:57:36;88.20;;;23.38;;
47337;SDS011;33069;51.970;5.892;2023-02-18T05:00:03;47.95;;;17.08;;
47337;SDS011;33069;51.970;5.892;2023-02-18T05:02:31;65.30;;;20.88;;
47337;SDS011;33069;51.970;5.892;2023-02-18T05:04:57;59.60;;;18.58;;
47337;SDS011;33069;51.970;5.892;2023-02-18T05:07:23;54.38;;;17.60;;
47337;SDS011;33069;51.970;5.892;2023-02-18T05:09:48;44.90;;;15.10;;
47337;SDS011;33069;51.970;5.892;2023-02-18T05:12:14;43.55;;;15.13;;
47337;SDS011;33069;51.970;5.892;2023-02-18T05:14:40;49.00;;;16.45;;
47337;SDS011;33069;51.970;5.892;2023-02-18T05:17:05;45.50;;;17.05;;
47337;SDS011;33069;51.970;5.892;2023-02-18T05:19:31;45.17;;;16.15;;
47337;SDS011;33069;51.970;5.892;2023-02-18T05:21:57;43.83;;;15.73;;
47337;SDS011;33069;51.970;5.892;2023-02-18T05:24:22;45.53;;;16.58;;
47337;SDS011;33069;51.970;5.892;2023-02-18T05:26:48;36.33;;;13.57;;
47337;SDS011;33069;51.970;5.892;2023-02-18T05:29:14;39.88;;;15.88;;
47337;SDS011;33069;51.970;5.892;2023-02-18T05:31:39;36.55;;;15.15;;
47337;SDS011;33069;51.970;5.892;2023-02-18T05:34:06;35.97;;;14.68;;
47337;SDS011;33069;51.970;5.892;2023-02-18T05:36:32;40.97;;;16.38;;
47337;SDS011;33069;51.970;5.892;2023-02-18T05:38:57;31.70;;;14.88;;
47337;SDS011;33069;51.970;5.892;2023-02-18T05:41:23;35.75;;;14.90;;
47337;SDS011;33069;51.970;5.892;2023-02-18T05:43:49;22.33;;;10.93;;
47337;SDS011;33069;51.970;5.892;2023-02-18T05:46:33;26.13;;;12.10;;
47337;SDS011;33069;51.970;5.892;2023-02-18T05:48:59;20.30;;;9.75;;
47337;SDS011;33069;51.970;5.892;2023-02-18T05:51:24;20.08;;;11.30;;
47337;SDS011;33069;51.970;5.892;2023-02-18T05:53:50;26.05;;;12.70;;
47337;SDS011;33069;51.970;5.892;2023-02-18T05:56:16;25.80;;;11.70;;
47337;SDS011;33069;51.970;5.892;2023-02-18T05:58:41;17.63;;;9.93;;
47337;SDS011;33069;51.970;5.892;2023-02-18T06:01:07;15.65;;;9.85;;
47337;SDS011;33069;51.970;5.892;2023-02-18T06:03:33;19.65;;;10.45;;
47337;SDS011;33069;51.970;5.892;2023-02-18T06:05:59;15.73;;;8.60;;
47337;SDS011;33069;51.970;5.892;2023-02-18T06:08:24;21.30;;;9.95;;
47337;SDS011;33069;51.970;5.892;2023-02-18T06:10:50;16.42;;;8.57;;
47337;SDS011;33069;51.970;5.892;2023-02-18T06:13:16;15.95;;;8.48;;
47337;SDS011;33069;51.970;5.892;2023-02-18T06:15:42;17.85;;;8.43;;
47337;SDS011;33069;51.970;5.892;2023-02-18T06:18:08;13.95;;;7.70;;
47337;SDS011;33069;51.970;5.892;2023-02-18T06:20:33;17.65;;;11.38;;
47337;SDS011;33069;51.970;5.892;2023-02-18T06:22:59;18.10;;;11.43;;
47337;SDS011;33069;51.970;5.892;2023-02-18T06:25:24;18.42;;;10.75;;
47337;SDS011;33069;51.970;5.892;2023-02-18T06:27:50;21.17;;;13.70;;
47337;SDS011;33069;51.970;5.892;2023-02-18T06:30:16;22.10;;;11.63;;
47337;SDS011;33069;51.970;5.892;2023-02-18T06:32:42;23.45;;;12.50;;
47337;SDS011;33069;51.970;5.892;2023-02-18T06:35:08;17.98;;;10.38;;
47337;SDS011;33069;51.970;5.892;2023-02-18T06:37:33;15.10;;;8.70;;
47337;SDS011;33069;51.970;5.892;2023-02-18T06:39:59;20.58;;;10.60;;
47337;SDS011;33069;51.970;5.892;2023-02-18T06:42:25;19.67;;;11.27;;
47337;SDS011;33069;51.970;5.892;2023-02-18T06:44:50;24.65;;;12.02;;
47337;SDS011;33069;51.970;5.892;2023-02-18T06:47:16;23.23;;;10.50;;
47337;SDS011;33069;51.970;5.892;2023-02-18T06:49:42;27.35;;;12.60;;
47337;SDS011;33069;51.970;5.892;2023-02-18T06:52:08;21.48;;;10.55;;
47337;SDS011;33069;51.970;5.892;2023-02-18T06:54:33;19.23;;;9.38;;
47337;SDS011;33069;51.970;5.892;2023-02-18T06:56:59;26.08;;;10.77;;
47337;SDS011;33069;51.970;5.892;2023-02-18T06:59:25;19.60;;;8.35;;
47337;SDS011;33069;51.970;5.892;2023-02-18T07:01:51;21.33;;;10.30;;
47337;SDS011;33069;51.970;5.892;2023-02-18T07:04:16;19.58;;;9.77;;
47337;SDS011;33069;51.970;5.892;2023-02-18T07:06:42;20.35;;;10.07;;
47337;SDS011;33069;51.970;5.892;2023-02-18T07:09:08;15.77;;;7.97;;
47337;SDS011;33069;51.970;5.892;2023-02-18T07:11:33;16.45;;;9.10;;
47337;SDS011;33069;51.970;5.892;2023-02-18T07:13:59;21.95;;;11.27;;
47337;SDS011;33069;51.970;5.892;2023-02-18T07:16:25;22.83;;;12.00;;
47337;SDS011;33069;51.970;5.892;2023-02-18T07:18:50;25.98;;;11.43;;
47337;SDS011;33069;51.970;5.892;2023-02-18T07:21:16;23.77;;;13.82;;
47337;SDS011;33069;51.970;5.892;2023-02-18T07:23:42;25.38;;;13.02;;
47337;SDS011;33069;51.970;5.892;2023-02-18T07:26:09;21.65;;;13.55;;
47337;SDS011;33069;51.970;5.892;2023-02-18T07:28:36;24.08;;;12.18;;
47337;SDS011;33069;51.970;5.892;2023-02-18T07:31:03;24.15;;;12.13;;
47337;SDS011;33069;51.970;5.892;2023-02-18T07:33:29;20.77;;;13.07;;
47337;SDS011;33069;51.970;5.892;2023-02-18T07:35:56;19.95;;;13.25;;
47337;SDS011;33069;51.970;5.892;2023-02-18T07:38:24;21.15;;;12.70;;
47337;SDS011;33069;51.970;5.892;2023-02-18T07:40:51;24.35;;;12.82;;
47337;SDS011;33069;51.970;5.892;2023-02-18T07:43:17;20.40;;;11.35;;
47337;SDS011;33069;51.970;5.892;2023-02-18T07:45:43;24.75;;;15.15;;
47337;SDS011;33069;51.970;5.892;2023-02-18T07:48:10;19.77;;;11.77;;
47337;SDS011;33069;51.970;5.892;2023-02-18T07:50:38;21.15;;;12.27;;
47337;SDS011;33069;51.970;5.892;2023-02-18T07:53:04;22.10;;;13.85;;
47337;SDS011;33069;51.970;5.892;2023-02-18T07:55:31;30.50;;;14.20;;
47337;SDS011;33069;51.970;5.892;2023-02-18T07:58:16;27.98;;;13.90;;
47337;SDS011;33069;51.970;5.892;2023-02-18T08:00:42;23.02;;;10.50;;
47337;SDS011;33069;51.970;5.892;2023-02-18T08:03:07;21.27;;;11.43;;
47337;SDS011;33069;51.970;5.892;2023-02-18T08:05:33;26.35;;;11.43;;
47337;SDS011;33069;51.970;5.892;2023-02-18T08:07:59;23.17;;;9.82;;
47337;SDS011;33069;51.970;5.892;2023-02-18T08:10:25;21.48;;;8.88;;
47337;SDS011;33069;51.970;5.892;2023-02-18T08:12:50;22.17;;;8.43;;
47337;SDS011;33069;51.970;5.892;2023-02-18T08:15:16;21.42;;;7.70;;
47337;SDS011;33069;51.970;5.892;2023-02-18T08:17:42;17.80;;;6.32;;
47337;SDS011;33069;51.970;5.892;2023-02-18T08:20:07;21.10;;;6.60;;
47337;SDS011;33069;51.970;5.892;2023-02-18T08:22:34;16.15;;;6.05;;
47337;SDS011;33069;51.970;5.892;2023-02-18T08:25:00;16.05;;;5.13;;
47337;SDS011;33069;51.970;5.892;2023-02-18T08:27:26;22.27;;;6.93;;
47337;SDS011;33069;51.970;5.892;2023-02-18T08:29:52;16.38;;;5.80;;
47337;SDS011;33069;51.970;5.892;2023-02-18T08:32:18;18.67;;;6.07;;
47337;SDS011;33069;51.970;5.892;2023-02-18T08:34:43;20.88;;;8.02;;
47337;SDS011;33069;51.970;5.892;2023-02-18T08:37:09;22.67;;;9.32;;
47337;SDS011;33069;51.970;5.892;2023-02-18T08:39:35;23.20;;;9.48;;
47337;SDS011;33069;51.970;5.892;2023-02-18T08:42:02;24.48;;;8.40;;
47337;SDS011;33069;51.970;5.892;2023-02-18T08:44:28;22.45;;;9.57;;
47337;SDS011;33069;51.970;5.892;2023-02-18T08:46:54;25.23;;;9.90;;
47337;SDS011;33069;51.970;5.892;2023-02-18T08:49:19;24.13;;;10.55;;
47337;SDS011;33069;51.970;5.892;2023-02-18T08:51:48;19.48;;;9.73;;
47337;SDS011;33069;51.970;5.892;2023-02-18T08:54:16;23.20;;;10.80;;
47337;SDS011;33069;51.970;5.892;2023-02-18T08:56:42;24.42;;;10.73;;
47337;SDS011;33069;51.970;5.892;2023-02-18T08:59:08;26.08;;;12.27;;
47337;SDS011;33069;51.970;5.892;2023-02-18T09:01:34;23.35;;;11.25;;
47337;SDS011;33069;51.970;5.892;2023-02-18T09:03:59;21.40;;;9.63;;
47337;SDS011;33069;51.970;5.892;2023-02-18T09:06:25;26.25;;;11.02;;
47337;SDS011;33069;51.970;5.892;2023-02-18T09:08:51;22.02;;;8.73;;
47337;SDS011;33069;51.970;5.892;2023-02-18T09:11:17;22.00;;;5.68;;
47337;SDS011;33069;51.970;5.892;2023-02-18T09:13:44;19.85;;;6.65;;
47337;SDS011;33069;51.970;5.892;2023-02-18T09:16:13;21.20;;;5.75;;
47337;SDS011;33069;51.970;5.892;2023-02-18T09:18:45;19.80;;;5.47;;
47337;SDS011;33069;51.970;5.892;2023-02-18T09:21:12;17.85;;;5.13;;
47337;SDS011;33069;51.970;5.892;2023-02-18T09:23:40;21.30;;;4.72;;
47337;SDS011;33069;51.970;5.892;2023-02-18T09:26:08;23.50;;;5.75;;
47337;SDS011;33069;51.970;5.892;2023-02-18T09:28:36;23.50;;;7.40;;
47337;SDS011;33069;51.970;5.892;2023-02-18T09:31:06;25.23;;;7.85;;
47337;SDS011;33069;51.970;5.892;2023-02-18T09:33:34;27.77;;;8.73;;
47337;SDS011;33069;51.970;5.892;2023-02-18T09:36:04;27.67;;;8.48;;
47337;SDS011;33069;51.970;5.892;2023-02-18T09:38:30;20.35;;;7.80;;
47337;SDS011;33069;51.970;5.892;2023-02-18T09:40:56;25.70;;;7.85;;
47337;SDS011;33069;51.970;5.892;2023-02-18T09:43:35;28.95;;;9.00;;
47337;SDS011;33069;51.970;5.892;2023-02-18T09:46:14;34.28;;;7.80;;
47337;SDS011;33069;51.970;5.892;2023-02-18T09:48:54;26.20;;;7.55;;
47337;SDS011;33069;51.970;5.892;2023-02-18T09:51:20;25.90;;;7.28;;
47337;SDS011;33069;51.970;5.892;2023-02-18T09:53:46;24.15;;;5.95;;
47337;SDS011;33069;51.970;5.892;2023-02-18T09:56:13;13.90;;;5.95;;
47337;SDS011;33069;51.970;5.892;2023-02-18T09:58:46;19.85;;;6.03;;
47337;SDS011;33069;51.970;5.892;2023-02-18T10:03:49;23.55;;;5.53;;
47337;SDS011;33069;51.970;5.892;2023-02-18T10:06:23;26.45;;;5.88;;
47337;SDS011;33069;51.970;5.892;2023-02-18T10:08:51;18.45;;;5.38;;
47337;SDS011;33069;51.970;5.892;2023-02-18T10:13:59;30.38;;;6.60;;
47337;SDS011;33069;51.970;5.892;2023-02-18T10:16:27;14.90;;;4.28;;
47337;SDS011;33069;51.970;5.892;2023-02-18T10:18:54;15.88;;;3.72;;
47337;SDS011;33069;51.970;5.892;2023-02-18T10:21:26;15.20;;;3.65;;
47337;SDS011;33069;51.970;5.892;2023-02-18T10:26:23;29.80;;;5.65;;
47337;SDS011;33069;51.970;5.892;2023-02-18T10:28:49;24.80;;;4.95;;
47337;SDS011;33069;51.970;5.892;2023-02-18T10:31:17;20.00;;;3.58;;
47337;SDS011;33069;51.970;5.892;2023-02-18T10:34:00;15.25;;;5.30;;
47337;SDS011;33069;51.970;5.892;2023-02-18T10:36:43;26.80;;;5.32;;
47337;SDS011;33069;51.970;5.892;2023-02-18T10:44:29;17.40;;;5.32;;
47337;SDS011;33069;51.970;5.892;2023-02-18T10:50:45;29.30;;;5.18;;
47337;SDS011;33069;51.970;5.892;2023-02-18T10:52:43;20.27;;;5.38;;
47337;SDS011;33069;51.970;5.892;2023-02-18T10:55:14;25.48;;;5.45;;
47337;SDS011;33069;51.970;5.892;2023-02-18T10:57:47;25.70;;;4.55;;
47337;SDS011;33069;51.970;5.892;2023-02-18T11:00:21;11.48;;;4.57;;
47337;SDS011;33069;51.970;5.892;2023-02-18T11:03:09;19.23;;;5.00;;
47337;SDS011;33069;51.970;5.892;2023-02-18T11:05:45;18.25;;;4.90;;
47337;SDS011;33069;51.970;5.892;2023-02-18T11:08:16;15.30;;;5.57;;
47337;SDS011;33069;51.970;5.892;2023-02-18T11:10:48;11.68;;;4.35;;
47337;SDS011;33069;51.970;5.892;2023-02-18T11:13:15;25.40;;;7.18;;
47337;SDS011;33069;51.970;5.892;2023-02-18T11:15:55;22.05;;;8.85;;
47337;SDS011;33069;51.970;5.892;2023-02-18T11:18:37;22.92;;;6.18;;
47337;SDS011;33069;51.970;5.892;2023-02-18T11:21:08;21.17;;;6.05;;
47337;SDS011;33069;51.970;5.892;2023-02-18T11:23:49;12.15;;;4.90;;
47337;SDS011;33069;51.970;5.892;2023-02-18T11:26:16;17.63;;;7.78;;
47337;SDS011;33069;51.970;5.892;2023-02-18T11:28:57;34.25;;;5.70;;
47337;SDS011;33069;51.970;5.892;2023-02-18T11:31:30;23.83;;;7.10;;
47337;SDS011;33069;51.970;5.892;2023-02-18T11:34:03;18.98;;;5.95;;
47337;SDS011;33069;51.970;5.892;2023-02-18T11:36:31;14.23;;;4.70;;
47337;SDS011;33069;51.970;5.892;2023-02-18T11:39:06;17.15;;;5.78;;
47337;SDS011;33069;51.970;5.892;2023-02-18T11:47:23;25.70;;;6.03;;
47337;SDS011;33069;51.970;5.892;2023-02-18T11:52:38;18.60;;;6.45;;
47337;SDS011;33069;51.970;5.892;2023-02-18T11:55:19;15.90;;;5.55;;
47337;SDS011;33069;51.970;5.892;2023-02-18T12:02:48;29.75;;;7.88;;
47337;SDS011;33069;51.970;5.892;2023-02-18T12:05:25;20.13;;;6.50;;
47337;SDS011;33069;51.970;5.892;2023-02-18T12:08:00;20.20;;;6.35;;
47337;SDS011;33069;51.970;5.892;2023-02-18T12:10:34;18.15;;;5.72;;
47337;SDS011;33069;51.970;5.892;2023-02-18T12:26:21;32.28;;;9.95;;
47337;SDS011;33069;51.970;5.892;2023-02-18T12:31:28;25.77;;;13.80;;
47337;SDS011;33069;51.970;5.892;2023-02-18T12:54:01;28.40;;;9.80;;
47337;SDS011;33069;51.970;5.892;2023-02-18T13:04:53;25.13;;;12.13;;
47337;SDS011;33069;51.970;5.892;2023-02-18T13:07:41;25.88;;;9.63;;
47337;SDS011;33069;51.970;5.892;2023-02-18T13:13:07;18.45;;;7.68;;
47337;SDS011;33069;51.970;5.892;2023-02-18T13:15:41;28.02;;;8.65;;
47337;SDS011;33069;51.970;5.892;2023-02-18T13:18:14;17.48;;;7.13;;
47337;SDS011;33069;51.970;5.892;2023-02-18T13:20:54;25.10;;;8.45;;
47337;SDS011;33069;51.970;5.892;2023-02-18T13:23:29;22.10;;;7.05;;
47337;SDS011;33069;51.970;5.892;2023-02-18T13:26:02;20.17;;;7.53;;
47337;SDS011;33069;51.970;5.892;2023-02-18T13:28:33;20.27;;;7.20;;
47337;SDS011;33069;51.970;5.892;2023-02-18T13:31:24;20.65;;;6.35;;
47337;SDS011;33069;51.970;5.892;2023-02-18T13:34:19;24.38;;;7.70;;
47337;SDS011;33069;51.970;5.892;2023-02-18T13:37:14;18.90;;;6.90;;
47337;SDS011;33069;51.970;5.892;2023-02-18T13:39:52;24.65;;;8.15;;
47337;SDS011;33069;51.970;5.892;2023-02-18T13:47:54;31.95;;;8.63;;
47337;SDS011;33069;51.970;5.892;2023-02-18T13:55:32;23.35;;;7.43;;
47337;SDS011;33069;51.970;5.892;2023-02-18T13:58:03;21.00;;;7.30;;
47337;SDS011;33069;51.970;5.892;2023-02-18T14:00:36;25.10;;;8.45;;
47337;SDS011;33069;51.970;5.892;2023-02-18T14:06:20;24.20;;;7.47;;
47337;SDS011;33069;51.970;5.892;2023-02-18T14:08:50;24.98;;;8.60;;
47337;SDS011;33069;51.970;5.892;2023-02-18T14:11:33;25.10;;;9.20;;
47337;SDS011;33069;51.970;5.892;2023-02-18T14:27:35;29.67;;;9.10;;
47337;SDS011;33069;51.970;5.892;2023-02-18T14:30:03;24.70;;;8.40;;
47337;SDS011;33069;51.970;5.892;2023-02-18T14:32:40;28.63;;;9.48;;
47337;SDS011;33069;51.970;5.892;2023-02-18T14:35:11;17.02;;;7.50;;
47337;SDS011;33069;51.970;5.892;2023-02-18T14:51:49;21.80;;;9.27;;
47337;SDS011;33069;51.970;5.892;2023-02-18T14:54:17;22.65;;;8.07;;
47337;SDS011;33069;51.970;5.892;2023-02-18T14:56:53;22.35;;;8.95;;
47337;SDS011;33069;51.970;5.892;2023-02-18T14:59:22;20.67;;;8.82;;
47337;SDS011;33069;51.970;5.892;2023-02-18T15:01:52;31.63;;;11.38;;
47337;SDS011;33069;51.970;5.892;2023-02-18T15:04:19;24.42;;;10.15;;
47337;SDS011;33069;51.970;5.892;2023-02-18T15:06:45;25.15;;;9.50;;
47337;SDS011;33069;51.970;5.892;2023-02-18T15:09:21;23.23;;;8.82;;
47337;SDS011;33069;51.970;5.892;2023-02-18T15:14:20;19.10;;;8.02;;
47337;SDS011;33069;51.970;5.892;2023-02-18T15:16:49;17.52;;;7.63;;
47337;SDS011;33069;51.970;5.892;2023-02-18T15:19:17;22.13;;;8.68;;
47337;SDS011;33069;51.970;5.892;2023-02-18T15:21:48;22.83;;;9.30;;
47337;SDS011;33069;51.970;5.892;2023-02-18T15:26:41;14.98;;;7.13;;
47337;SDS011;33069;51.970;5.892;2023-02-18T15:29:14;20.73;;;9.10;;
47337;SDS011;33069;51.970;5.892;2023-02-18T15:31:44;32.53;;;10.27;;
47337;SDS011;33069;51.970;5.892;2023-02-18T15:37:07;20.50;;;8.00;;
47337;SDS011;33069;51.970;5.892;2023-02-18T15:39:36;25.35;;;8.90;;
47337;SDS011;33069;51.970;5.892;2023-02-18T15:42:14;22.25;;;9.27;;
47337;SDS011;33069;51.970;5.892;2023-02-18T15:44:47;20.17;;;9.07;;
47337;SDS011;33069;51.970;5.892;2023-02-18T15:47:16;23.30;;;9.98;;
47337;SDS011;33069;51.970;5.892;2023-02-18T15:49:44;27.15;;;10.40;;
47337;SDS011;33069;51.970;5.892;2023-02-18T15:52:13;26.60;;;10.60;;
47337;SDS011;33069;51.970;5.892;2023-02-18T15:54:39;25.98;;;9.60;;
47337;SDS011;33069;51.970;5.892;2023-02-18T15:57:08;16.10;;;7.53;;
47337;SDS011;33069;51.970;5.892;2023-02-18T15:59:42;19.75;;;9.05;;
47337;SDS011;33069;51.970;5.892;2023-02-18T16:02:13;25.65;;;8.60;;
47337;SDS011;33069;51.970;5.892;2023-02-18T16:04:52;20.23;;;9.77;;
47337;SDS011;33069;51.970;5.892;2023-02-18T16:10:07;17.90;;;8.90;;
47337;SDS011;33069;51.970;5.892;2023-02-18T16:12:33;22.27;;;9.82;;
47337;SDS011;33069;51.970;5.892;2023-02-18T16:15:01;25.67;;;9.50;;
47337;SDS011;33069;51.970;5.892;2023-02-18T16:17:28;21.27;;;9.45;;
47337;SDS011;33069;51.970;5.892;2023-02-18T16:20:02;21.00;;;9.52;;
47337;SDS011;33069;51.970;5.892;2023-02-18T16:22:52;18.65;;;10.18;;
47337;SDS011;33069;51.970;5.892;2023-02-18T16:25:26;20.88;;;8.68;;
47337;SDS011;33069;51.970;5.892;2023-02-18T16:28:06;25.60;;;9.27;;
47337;SDS011;33069;51.970;5.892;2023-02-18T16:30:40;18.88;;;9.50;;
47337;SDS011;33069;51.970;5.892;2023-02-18T16:33:09;26.13;;;10.18;;
47337;SDS011;33069;51.970;5.892;2023-02-18T16:35:35;26.10;;;11.20;;
47337;SDS011;33069;51.970;5.892;2023-02-18T16:38:01;24.63;;;11.55;;
47337;SDS011;33069;51.970;5.892;2023-02-18T16:43:14;29.52;;;11.13;;
47337;SDS011;33069;51.970;5.892;2023-02-18T16:45:48;22.90;;;9.60;;
47337;SDS011;33069;51.970;5.892;2023-02-18T16:51:12;26.40;;;12.32;;
47337;SDS011;33069;51.970;5.892;2023-02-18T16:53:58;28.88;;;12.32;;
47337;SDS011;33069;51.970;5.892;2023-02-18T16:56:25;31.42;;;13.50;;
47337;SDS011;33069;51.970;5.892;2023-02-18T16:58:54;21.23;;;10.50;;
47337;SDS011;33069;51.970;5.892;2023-02-18T17:01:28;22.83;;;11.32;;
47337;SDS011;33069;51.970;5.892;2023-02-18T17:04:01;23.65;;;11.82;;
47337;SDS011;33069;51.970;5.892;2023-02-18T17:06:28;28.23;;;13.90;;
47337;SDS011;33069;51.970;5.892;2023-02-18T17:08:54;25.35;;;12.20;;
47337;SDS011;33069;51.970;5.892;2023-02-18T17:11:21;26.88;;;13.30;;
47337;SDS011;33069;51.970;5.892;2023-02-18T17:13:50;18.65;;;12.15;;
47337;SDS011;33069;51.970;5.892;2023-02-18T17:16:17;29.45;;;12.38;;
47337;SDS011;33069;51.970;5.892;2023-02-18T17:18:44;25.65;;;12.88;;
47337;SDS011;33069;51.970;5.892;2023-02-18T17:21:11;33.28;;;12.40;;
47337;SDS011;33069;51.970;5.892;2023-02-18T17:23:38;22.88;;;10.98;;
47337;SDS011;33069;51.970;5.892;2023-02-18T17:26:04;24.67;;;12.20;;
47337;SDS011;33069;51.970;5.892;2023-02-18T17:28:34;34.35;;;12.32;;
47337;SDS011;33069;51.970;5.892;2023-02-18T17:30:59;29.42;;;15.23;;
47337;SDS011;33069;51.970;5.892;2023-02-18T17:33:25;26.73;;;13.65;;
47337;SDS011;33069;51.970;5.892;2023-02-18T17:35:51;28.27;;;12.27;;